Time;durP1;ratioP1;P1;durP2;ratioP2;P2;SDS_P1;SDS_P2;PMS_P1;PMS_P2;Temp;Humidity;BMP_temperature;BMP_pressure;BME280_temperature;BME280_humidity;BME280_pressure;Samples;Min_cycle;Max_cycle;Signal;HPM_P1;HPM_P2
2023/04/12 00:02:11;;;;;;;5.50;3.40;;;14.00;46.90;;;;;;5025539;28;20687;-50
2023/04/12 00:04:37;;;;;;;4.13;2.30;;;14.10;47.10;;;;;;5018203;28;20233;-49
2023/04/12 00:07:04;;;;;;;2.40;2.20;;;14.20;46.60;;;;;;5022026;28;20217;-49
2023/04/12 00:09:30;;;;;;;3.83;2.47;;;14.10;46.40;;;;;;5022100;28;20679;-49
2023/04/12 00:11:57;;;;;;;4.27;2.40;;;14.00;46.80;;;;;;5016870;28;20443;-54
2023/04/12 00:14:26;;;;;;;6.00;3.00;;;14.00;46.90;;;;;;5021459;28;20197;-50
2023/04/12 00:16:52;;;;;;;3.50;2.47;;;14.10;46.90;;;;;;5016603;28;20577;-49
2023/04/12 00:19:17;;;;;;;6.13;2.57;;;14.20;46.70;;;;;;5018435;28;20444;-48
2023/04/12 00:21:43;;;;;;;6.50;3.00;;;14.30;46.50;;;;;;5033181;28;20209;-48
2023/04/12 00:24:09;;;;;;;8.37;3.70;;;14.20;46.70;;;;;;5027251;28;20292;-55
2023/04/12 00:26:35;;;;;;;5.03;2.63;;;14.20;47.10;;;;;;5015470;28;20547;-49
2023/04/12 00:29:00;;;;;;;7.53;2.50;;;14.30;46.80;;;;;;5018211;28;20489;-49
2023/04/12 00:31:26;;;;;;;8.90;3.13;;;14.30;46.50;;;;;;5023493;28;20208;-50
2023/04/12 00:33:52;;;;;;;3.63;2.00;;;14.10;46.50;;;;;;5031256;28;20281;-49
2023/04/12 00:36:18;;;;;;;5.30;2.43;;;14.00;46.90;;;;;;5021001;28;20226;-49
2023/04/12 00:38:44;;;;;;;3.60;3.17;;;14.20;46.90;;;;;;5015468;28;20267;-51
2023/04/12 00:41:11;;;;;;;3.53;2.90;;;14.00;47.10;;;;;;5017083;28;20448;-49
2023/04/12 00:43:36;;;;;;;8.13;2.80;;;14.10;47.30;;;;;;5020847;28;20450;-50
2023/04/12 00:46:02;;;;;;;5.10;2.77;;;14.20;47.60;;;;;;5029183;28;20440;-50
2023/04/12 00:48:29;;;;;;;4.47;2.53;;;14.30;47.50;;;;;;5022102;28;20689;-48
2023/04/12 00:50:56;;;;;;;3.50;2.57;;;14.40;47.80;;;;;;5028663;28;20665;-48
2023/04/12 00:53:22;;;;;;;3.03;2.30;;;14.50;47.90;;;;;;5025879;28;20492;-52
2023/04/12 00:55:49;;;;;;;5.83;3.00;;;14.60;48.20;;;;;;5030329;28;20433;-49
2023/04/12 00:58:15;;;;;;;6.30;3.07;;;14.40;48.90;;;;;;5019454;28;20232;-50
2023/04/12 01:00:43;;;;;;;4.43;2.43;;;14.50;49.50;;;;;;5015663;28;20447;-49
2023/04/12 01:03:10;;;;;;;7.00;2.73;;;14.50;50.20;;;;;;5017711;28;20955;-49
2023/04/12 01:05:45;;;;;;;4.33;2.90;;;14.30;51.00;;;;;;5025836;28;20824;-49
2023/04/12 01:08:22;;;;;;;5.27;2.43;;;14.30;51.90;;;;;;5029474;28;20451;-49
2023/04/12 01:11:25;;;;;;;6.00;2.77;;;14.30;52.30;;;;;;5027182;28;20452;-49
2023/04/12 01:14:29;;;;;;;5.13;2.30;;;14.30;52.90;;;;;;5022836;28;20487;-50
2023/04/12 01:16:59;;;;;;;5.67;2.40;;;14.30;53.20;;;;;;5017445;28;20484;-49
2023/04/12 01:19:32;;;;;;;5.00;2.07;;;14.30;53.70;;;;;;5019917;28;20441;-50
2023/04/12 01:22:15;;;;;;;5.70;2.93;;;14.30;54.20;;;;;;5013778;28;20947;-52
2023/04/12 01:25:22;;;;;;;4.73;2.27;;;14.30;54.40;;;;;;5017045;28;20445;-50
2023/04/12 01:27:53;;;;;;;4.47;2.70;;;14.30;54.60;;;;;;5018300;28;20455;-49
2023/04/12 01:30:19;;;;;;;3.63;2.57;;;14.30;54.70;;;;;;5011985;28;20490;-53
2023/04/12 01:32:51;;;;;;;4.63;2.60;;;14.20;54.90;;;;;;5014143;28;23009;-51
2023/04/12 01:35:19;;;;;;;4.17;2.73;;;14.20;55.10;;;;;;5014994;28;20456;-49
2023/04/12 01:37:45;;;;;;;7.37;3.00;;;14.40;55.30;;;;;;5025533;28;20487;-51
2023/04/12 01:40:12;;;;;;;6.23;2.77;;;14.40;55.20;;;;;;5017799;28;20966;-51
2023/04/12 01:42:38;;;;;;;3.23;2.60;;;14.40;55.20;;;;;;5017735;28;20785;-52
2023/04/12 01:45:04;;;;;;;4.27;2.60;;;14.40;55.30;;;;;;5019144;28;20443;-51
2023/04/12 01:47:31;;;;;;;4.43;2.50;;;14.40;55.40;;;;;;5017125;28;20833;-54
2023/04/12 01:50:15;;;;;;;5.60;3.07;;;14.30;55.40;;;;;;5020785;28;20490;-50
2023/04/12 01:52:56;;;;;;;8.37;2.60;;;14.30;55.80;;;;;;5015532;28;20441;-54
2023/04/12 01:55:24;;;;;;;8.23;5.13;;;14.30;55.90;;;;;;5018832;28;20876;-54
2023/04/12 01:57:52;;;;;;;3.83;2.67;;;14.30;56.20;;;;;;5018495;28;20606;-53
2023/04/12 02:00:18;;;;;;;6.23;3.13;;;14.10;56.80;;;;;;5017029;28;22111;-54
2023/04/12 02:02:44;;;;;;;4.20;2.70;;;14.00;57.30;;;;;;5016079;28;20443;-53
2023/04/12 02:05:10;;;;;;;4.50;2.00;;;14.00;57.90;;;;;;5015616;28;20440;-54
2023/04/12 02:07:36;;;;;;;4.67;2.50;;;13.70;58.70;;;;;;5015429;28;20551;-53
2023/04/12 02:10:02;;;;;;;7.47;2.93;;;13.50;60.00;;;;;;5020275;28;20440;-53
2023/04/12 02:12:27;;;;;;;5.13;2.93;;;13.30;60.80;;;;;;5023397;28;20452;-52
2023/04/12 02:14:53;;;;;;;6.37;2.90;;;13.20;61.40;;;;;;5020478;28;20569;-54
2023/04/12 02:17:20;;;;;;;2.43;2.23;;;13.10;61.90;;;;;;5039050;28;20615;-53
2023/04/12 02:19:46;;;;;;;3.57;3.17;;;13.10;62.10;;;;;;5023977;28;20203;-52
2023/04/12 02:22:11;;;;;;;3.43;3.13;;;13.20;62.10;;;;;;5024000;28;20451;-54
2023/04/12 02:24:37;;;;;;;8.67;4.07;;;13.10;62.20;;;;;;5026664;28;20498;-54
2023/04/12 02:27:03;;;;;;;4.37;3.37;;;13.10;62.70;;;;;;5025777;28;20241;-52
2023/04/12 02:29:28;;;;;;;6.47;4.10;;;13.00;63.10;;;;;;5029595;28;20193;-50
2023/04/12 02:31:54;;;;;;;5.30;3.10;;;13.00;62.80;;;;;;5041978;28;20277;-52
2023/04/12 02:34:21;;;;;;;4.80;3.40;;;12.80;63.10;;;;;;5034317;28;20239;-53
2023/04/12 02:36:48;;;;;;;4.30;3.40;;;12.80;63.80;;;;;;5032017;28;20267;-54
2023/04/12 02:39:17;;;;;;;5.30;3.20;;;12.70;63.80;;;;;;5023550;28;20889;-54
2023/04/12 02:41:43;;;;;;;6.13;3.47;;;12.70;64.20;;;;;;5034539;28;20874;-52
2023/04/12 02:44:08;;;;;;;4.30;3.27;;;12.80;64.30;;;;;;5034061;28;20519;-51
2023/04/12 02:46:34;;;;;;;12.00;3.10;;;12.90;63.90;;;;;;5029287;28;20448;-50
2023/04/12 02:48:59;;;;;;;5.53;3.13;;;13.00;63.60;;;;;;5031869;28;20193;-50
2023/04/12 02:51:25;;;;;;;5.83;2.50;;;12.70;64.30;;;;;;5017437;28;20293;-52
2023/04/12 02:53:51;;;;;;;5.77;2.27;;;12.50;65.50;;;;;;5024384;28;20232;-53
2023/04/12 02:56:17;;;;;;;3.77;2.07;;;12.20;67.10;;;;;;5024124;28;20443;-53
2023/04/12 02:58:43;;;;;;;5.70;2.50;;;11.90;68.80;;;;;;5025978;28;20208;-48
2023/04/12 03:01:11;;;;;;;4.13;2.60;;;12.10;69.50;;;;;;5025307;28;20449;-52
2023/04/12 03:03:38;;;;;;;6.20;3.00;;;12.10;68.80;;;;;;5029479;28;20564;-52
2023/04/12 03:06:04;;;;;;;8.73;3.20;;;12.10;69.50;;;;;;5032889;28;20432;-52
2023/04/12 03:08:30;;;;;;;3.83;3.00;;;12.10;69.30;;;;;;5029787;28;20447;-50
2023/04/12 03:10:56;;;;;;;5.10;3.27;;;12.10;70.10;;;;;;5026712;28;20473;-52
2023/04/12 03:13:22;;;;;;;6.83;2.97;;;12.10;69.60;;;;;;5027357;28;20443;-53
2023/04/12 03:15:48;;;;;;;3.20;2.50;;;12.00;70.10;;;;;;5027185;28;20527;-50
2023/04/12 03:18:14;;;;;;;5.63;2.80;;;11.90;70.70;;;;;;5024424;28;20743;-51
2023/04/12 03:20:42;;;;;;;3.97;2.57;;;11.80;71.60;;;;;;5027093;28;20437;-53
2023/04/12 03:23:08;;;;;;;5.00;4.10;;;11.70;71.80;;;;;;5025131;28;20951;-51
2023/04/12 03:25:33;;;;;;;7.60;3.23;;;11.80;71.70;;;;;;5022716;28;20452;-52
2023/04/12 03:27:59;;;;;;;3.50;2.43;;;11.50;72.20;;;;;;5020387;28;20190;-53
2023/04/12 03:30:24;;;;;;;5.30;2.40;;;11.40;73.20;;;;;;5022220;28;20756;-50
2023/04/12 03:32:50;;;;;;;9.20;3.67;;;11.30;74.30;;;;;;5018914;28;20192;-50
2023/04/12 03:35:15;;;;;;;8.90;3.43;;;11.30;74.80;;;;;;5016232;28;20204;-50
2023/04/12 03:37:42;;;;;;;5.20;3.27;;;11.50;74.60;;;;;;5025045;28;20225;-53
2023/04/12 03:40:11;;;;;;;4.43;2.60;;;11.70;73.20;;;;;;5014921;28;20700;-51
2023/04/12 03:42:36;;;;;;;4.40;2.90;;;11.60;73.50;;;;;;5025407;28;20483;-54
2023/04/12 03:45:03;;;;;;;3.17;2.80;;;11.50;74.10;;;;;;5023335;28;20582;-49
2023/04/12 03:47:29;;;;;;;4.13;2.70;;;11.60;73.80;;;;;;5026738;28;20197;-51
2023/04/12 03:49:55;;;;;;;4.80;2.80;;;11.50;73.50;;;;;;5020751;28;20817;-48
2023/04/12 03:52:21;;;;;;;7.30;3.67;;;11.50;74.60;;;;;;5024671;28;20522;-49
2023/04/12 03:54:46;;;;;;;5.83;2.83;;;11.40;75.20;;;;;;5024673;28;20614;-50
2023/04/12 03:57:12;;;;;;;2.83;2.50;;;11.50;74.60;;;;;;5019260;28;20232;-48
2023/04/12 03:59:37;;;;;;;4.13;2.37;;;11.50;74.90;;;;;;5017174;28;20231;-51
2023/04/12 04:02:04;;;;;;;7.37;2.97;;;11.70;74.90;;;;;;5020144;28;20553;-50
2023/04/12 04:04:30;;;;;;;5.30;2.60;;;11.70;74.10;;;;;;5017315;28;20192;-49
2023/04/12 04:06:56;;;;;;;5.30;3.10;;;11.80;74.10;;;;;;5020374;28;20441;-51
2023/04/12 04:09:21;;;;;;;4.57;2.83;;;11.90;73.70;;;;;;5016843;28;20201;-48
2023/04/12 04:11:48;;;;;;;3.40;2.33;;;11.60;74.40;;;;;;5018348;28;20222;-52
2023/04/12 04:14:14;;;;;;;4.27;2.30;;;11.70;75.20;;;;;;5019547;28;20661;-48
2023/04/12 04:16:40;;;;;;;3.70;2.17;;;11.90;74.80;;;;;;5020481;28;20526;-48
2023/04/12 04:19:05;;;;;;;7.00;2.90;;;11.90;74.50;;;;;;5016576;28;20204;-51
2023/04/12 04:21:31;;;;;;;8.10;3.37;;;11.90;74.30;;;;;;5027055;28;20208;-51
2023/04/12 04:24:00;;;;;;;8.50;3.33;;;11.70;75.10;;;;;;5032995;28;20243;-51
2023/04/12 04:26:32;;;;;;;10.17;4.13;;;11.90;75.00;;;;;;5020255;28;20216;-49
2023/04/12 04:29:00;;;;;;;9.60;3.93;;;11.70;74.80;;;;;;5020347;28;20444;-50
2023/04/12 04:31:35;;;;;;;6.90;4.37;;;11.80;75.00;;;;;;5032687;28;20502;-50
2023/04/12 04:34:05;;;;;;;5.33;3.10;;;11.80;74.50;;;;;;5027734;28;20436;-53
2023/04/12 04:36:37;;;;;;;4.60;2.93;;;11.60;75.50;;;;;;5024900;28;20480;-53
2023/04/12 04:39:06;;;;;;;4.10;2.17;;;11.60;75.80;;;;;;5018795;28;20819;-49
2023/04/12 04:41:38;;;;;;;4.73;2.70;;;11.70;75.60;;;;;;5020610;28;20975;-53
2023/04/12 04:44:08;;;;;;;3.70;2.40;;;11.60;75.50;;;;;;5019087;28;20444;-51
2023/04/12 04:46:38;;;;;;;5.37;2.77;;;11.40;76.70;;;;;;5026451;28;20446;-49
2023/04/12 04:49:04;;;;;;;5.90;2.80;;;11.40;76.90;;;;;;5028182;28;20855;-49
2023/04/12 04:51:30;;;;;;;8.10;4.50;;;11.30;77.30;;;;;;5030676;28;20444;-52
2023/04/12 04:53:56;;;;;;;9.97;4.00;;;11.40;77.50;;;;;;5023098;28;20484;-49
2023/04/12 04:56:22;;;;;;;3.07;2.87;;;11.50;77.50;;;;;;5027870;28;20205;-50
2023/04/12 04:58:48;;;;;;;4.50;3.00;;;11.20;78.00;;;;;;5025629;28;20669;-49
2023/04/12 05:01:15;;;;;;;3.70;3.10;;;11.20;78.60;;;;;;5023415;28;20475;-50
2023/04/12 05:03:43;;;;;;;5.00;2.67;;;11.00;79.70;;;;;;5023920;28;20550;-48
2023/04/12 05:06:09;;;;;;;4.40;3.50;;;10.80;81.40;;;;;;5024925;28;20889;-51
2023/04/12 05:08:35;;;;;;;8.40;4.10;;;10.90;81.60;;;;;;5026509;28;20480;-51
2023/04/12 05:11:00;;;;;;;6.50;3.47;;;10.90;82.10;;;;;;5019135;28;20480;-51
2023/04/12 05:13:26;;;;;;;5.80;2.90;;;10.90;82.00;;;;;;5022847;28;20198;-51
2023/04/12 05:15:51;;;;;;;6.50;3.10;;;10.90;82.00;;;;;;5012620;28;20260;-49
2023/04/12 05:18:17;;;;;;;4.30;3.03;;;10.90;81.70;;;;;;5013590;28;20716;-50
2023/04/12 05:20:43;;;;;;;7.50;3.30;;;10.80;82.60;;;;;;5014697;28;20194;-50
2023/04/12 05:23:08;;;;;;;2.70;2.50;;;10.90;83.80;;;;;;5016651;28;20275;-50
2023/04/12 05:25:34;;;;;;;5.67;2.50;;;11.20;82.00;;;;;;5022253;28;20197;-49
2023/04/12 05:28:00;;;;;;;5.70;2.80;;;11.40;80.70;;;;;;5021512;28;20225;-49
2023/04/12 05:30:25;;;;;;;4.17;2.60;;;11.40;79.90;;;;;;5018178;28;20445;-51
2023/04/12 05:32:51;;;;;;;2.93;2.47;;;11.70;78.20;;;;;;5022871;28;20711;-49
2023/04/12 05:35:17;;;;;;;3.20;2.90;;;11.60;77.60;;;;;;5033958;28;20202;-50
2023/04/12 05:37:42;;;;;;;3.67;2.80;;;11.50;78.60;;;;;;5029387;28;20247;-49
2023/04/12 05:40:08;;;;;;;7.00;3.43;;;11.60;78.40;;;;;;5022011;28;20196;-48
2023/04/12 05:42:36;;;;;;;5.03;4.03;;;11.80;77.70;;;;;;5046243;28;20739;-52
2023/04/12 05:45:05;;;;;;;2.30;2.10;;;11.90;76.50;;;;;;5025205;28;20951;-49
2023/04/12 05:47:31;;;;;;;3.00;2.77;;;11.80;77.40;;;;;;5026524;28;20456;-52
2023/04/12 05:49:56;;;;;;;5.60;5.10;;;11.80;77.40;;;;;;5025261;28;20526;-48
2023/04/12 05:52:22;;;;;;;4.90;4.27;;;11.60;78.20;;;;;;5024213;28;20201;-48
2023/04/12 05:54:47;;;;;;;4.97;4.30;;;11.60;78.20;;;;;;5017569;28;20229;-49
2023/04/12 05:57:14;;;;;;;7.10;5.07;;;11.60;78.20;;;;;;5022123;28;20306;-49
2023/04/12 05:59:40;;;;;;;5.27;3.63;;;11.50;79.10;;;;;;5023722;28;20193;-47
2023/04/12 06:02:06;;;;;;;7.70;4.00;;;11.40;79.80;;;;;;5027037;28;20443;-48
2023/04/12 06:04:32;;;;;;;5.33;3.90;;;11.30;80.70;;;;;;5032189;28;20271;-51
2023/04/12 06:06:57;;;;;;;4.33;3.60;;;11.30;81.20;;;;;;5021261;28;20497;-50
2023/04/12 06:09:23;;;;;;;7.90;4.80;;;11.40;81.40;;;;;;5023662;28;20556;-48
2023/04/12 06:11:48;;;;;;;3.67;2.60;;;11.40;80.70;;;;;;5020867;28;20213;-51
2023/04/12 06:14:14;;;;;;;7.27;3.33;;;11.50;79.80;;;;;;5022131;28;20196;-47
2023/04/12 06:16:40;;;;;;;8.60;3.20;;;11.60;80.80;;;;;;5024196;28;20225;-49
2023/04/12 06:19:05;;;;;;;4.57;3.13;;;11.80;79.30;;;;;;5030945;28;20240;-48
2023/04/12 06:21:31;;;;;;;4.03;2.80;;;11.90;78.40;;;;;;5017440;28;20200;-50
2023/04/12 06:23:56;;;;;;;3.87;2.47;;;11.80;78.60;;;;;;5013376;28;20745;-52
2023/04/12 06:26:22;;;;;;;5.20;2.40;;;11.50;79.30;;;;;;5018887;28;20649;-51
2023/04/12 06:28:48;;;;;;;3.80;3.40;;;11.70;80.00;;;;;;5020667;28;20653;-52
2023/04/12 06:31:15;;;;;;;2.77;2.50;;;11.80;78.50;;;;;;5030604;28;20569;-51
2023/04/12 06:33:41;;;;;;;2.93;2.60;;;11.70;78.90;;;;;;5030710;28;20281;-52
2023/04/12 06:36:07;;;;;;;4.07;3.00;;;11.70;79.40;;;;;;5026256;28;20565;-53
2023/04/12 06:38:33;;;;;;;5.10;2.60;;;11.80;79.80;;;;;;5028717;28;20208;-53
2023/04/12 06:40:59;;;;;;;8.13;3.40;;;11.90;78.50;;;;;;5048699;28;20496;-51
2023/04/12 06:43:25;;;;;;;3.27;2.87;;;12.10;78.40;;;;;;5026395;28;20197;-52
2023/04/12 06:45:50;;;;;;;3.87;2.70;;;12.00;78.00;;;;;;5030189;28;20438;-50
2023/04/12 06:48:16;;;;;;;3.73;3.00;;;11.80;79.30;;;;;;5027331;28;20273;-50
2023/04/12 06:50:43;;;;;;;4.00;2.83;;;12.00;79.30;;;;;;5030558;28;20201;-52
2023/04/12 06:53:08;;;;;;;4.57;3.20;;;12.00;78.60;;;;;;5028033;28;20245;-51
2023/04/12 06:55:34;;;;;;;5.17;3.10;;;11.90;79.50;;;;;;5017053;28;20483;-50
2023/04/12 06:58:00;;;;;;;4.50;2.67;;;11.90;79.60;;;;;;5029315;28;20232;-50
2023/04/12 07:00:25;;;;;;;3.27;2.77;;;12.20;79.00;;;;;;5030358;28;20236;-52
2023/04/12 07:02:51;;;;;;;5.57;2.70;;;12.40;78.00;;;;;;5032957;28;20201;-49
2023/04/12 07:05:17;;;;;;;5.20;2.90;;;12.40;77.20;;;;;;5026630;28;20193;-48
2023/04/12 07:07:43;;;;;;;2.90;2.70;;;12.50;77.40;;;;;;5020088;28;20221;-49
2023/04/12 07:10:09;;;;;;;3.07;2.40;;;12.50;76.60;;;;;;5028628;28;20196;-50
2023/04/12 07:12:35;;;;;;;4.07;2.60;;;12.40;76.90;;;;;;5031994;28;20444;-52
2023/04/12 07:15:00;;;;;;;2.93;2.20;;;12.40;77.60;;;;;;5027003;28;20276;-49
2023/04/12 07:17:26;;;;;;;3.47;2.47;;;12.20;78.50;;;;;;5029905;28;21009;-48
2023/04/12 07:19:53;;;;;;;2.87;2.57;;;12.40;78.10;;;;;;5022892;28;20204;-49
2023/04/12 07:22:18;;;;;;;4.10;2.50;;;12.60;77.90;;;;;;5030565;28;20225;-51
2023/04/12 07:24:44;;;;;;;2.97;2.67;;;12.70;76.70;;;;;;5031954;28;20518;-48
2023/04/12 07:27:10;;;;;;;2.57;2.00;;;12.60;77.00;;;;;;5027329;28;20197;-48
2023/04/12 07:29:36;;;;;;;2.87;2.63;;;12.40;78.60;;;;;;5033929;28;20276;-47
2023/04/12 07:32:03;;;;;;;3.83;2.47;;;12.40;79.70;;;;;;5035401;28;20193;-50
2023/04/12 07:34:29;;;;;;;3.40;2.77;;;12.40;79.00;;;;;;5032167;28;20196;-51
2023/04/12 07:36:55;;;;;;;3.13;2.80;;;12.30;79.10;;;;;;5029915;28;20982;-47
2023/04/12 07:39:21;;;;;;;2.77;2.57;;;12.50;79.80;;;;;;5035074;28;20447;-50
2023/04/12 07:41:49;;;;;;;3.73;2.37;;;12.40;79.80;;;;;;5030670;28;20220;-51
2023/04/12 07:44:14;;;;;;;4.13;2.70;;;12.50;79.80;;;;;;5031899;28;20197;-52
2023/04/12 07:46:40;;;;;;;2.33;2.10;;;12.50;79.50;;;;;;5027940;28;20812;-50
2023/04/12 07:49:07;;;;;;;2.83;2.33;;;12.60;79.10;;;;;;5022312;28;20259;-51
2023/04/12 07:51:33;;;;;;;4.17;2.60;;;12.60;79.50;;;;;;5028014;28;21059;-50
2023/04/12 07:53:58;;;;;;;3.43;1.70;;;12.70;78.50;;;;;;5028134;28;20562;-51
2023/04/12 07:56:24;;;;;;;2.60;2.10;;;12.60;78.90;;;;;;5020599;28;20214;-50
2023/04/12 07:58:50;;;;;;;4.03;2.20;;;12.50;79.90;;;;;;5029803;28;20193;-49
2023/04/12 08:01:15;;;;;;;2.20;2.00;;;12.70;78.70;;;;;;5023184;28;20263;-52
2023/04/12 08:03:41;;;;;;;3.93;2.20;;;12.60;79.40;;;;;;5021926;28;20192;-50
2023/04/12 08:06:07;;;;;;;3.60;2.60;;;12.60;79.50;;;;;;5038072;28;21157;-52
2023/04/12 08:08:33;;;;;;;3.87;1.70;;;12.80;78.90;;;;;;5029650;28;20189;-48
2023/04/12 08:11:01;;;;;;;3.00;2.13;;;12.80;77.10;;;;;;5033031;28;20446;-50
2023/04/12 08:13:27;;;;;;;2.90;2.30;;;12.70;77.90;;;;;;5025041;28;20221;-49
2023/04/12 08:15:52;;;;;;;2.70;2.40;;;13.00;77.30;;;;;;5029917;28;20444;-50
2023/04/12 08:18:18;;;;;;;2.00;1.77;;;12.90;76.60;;;;;;5023232;28;20416;-49
2023/04/12 08:20:44;;;;;;;2.27;2.00;;;12.80;78.50;;;;;;5020021;28;20196;-52
2023/04/12 08:23:10;;;;;;;3.07;2.83;;;12.80;79.30;;;;;;5037763;28;20672;-48
2023/04/12 08:25:36;;;;;;;4.30;2.10;;;12.80;78.50;;;;;;5016632;28;20242;-47
2023/04/12 08:28:02;;;;;;;2.23;2.03;;;12.50;80.50;;;;;;5016755;28;20802;-50
2023/04/12 08:30:28;;;;;;;2.70;2.50;;;12.40;82.30;;;;;;5027992;28;20440;-48
2023/04/12 08:32:54;;;;;;;2.50;2.30;;;12.80;81.60;;;;;;5021046;28;20447;-48
2023/04/12 08:35:21;;;;;;;3.07;2.03;;;13.00;80.10;;;;;;5019916;28;20685;-51
2023/04/12 08:37:46;;;;;;;2.27;2.07;;;12.70;79.40;;;;;;5031880;28;20704;-48
2023/04/12 08:40:12;;;;;;;2.03;1.87;;;12.90;80.20;;;;;;5030820;28;20448;-49
2023/04/12 08:42:38;;;;;;;1.67;1.57;;;13.00;79.30;;;;;;5018744;28;20295;-48
2023/04/12 08:45:05;;;;;;;2.50;1.80;;;13.00;78.70;;;;;;5025968;28;21017;-50
2023/04/12 08:47:33;;;;;;;3.57;1.53;;;13.00;79.10;;;;;;5020545;28;20300;-50
2023/04/12 08:50:01;;;;;;;2.27;1.80;;;12.80;79.30;;;;;;5029559;28;20444;-48
2023/04/12 08:52:27;;;;;;;3.30;2.30;;;12.50;82.40;;;;;;5023403;28;20442;-48
2023/04/12 08:54:54;;;;;;;4.50;1.83;;;12.60;83.20;;;;;;5019681;28;20487;-49
2023/04/12 08:57:20;;;;;;;2.20;1.40;;;12.80;81.10;;;;;;5020124;28;20348;-49
2023/04/12 08:59:49;;;;;;;5.23;2.10;;;13.20;79.10;;;;;;5020107;28;20448;-49
2023/04/12 09:02:15;;;;;;;2.60;1.80;;;13.20;78.30;;;;;;5024830;28;20440;-48
2023/04/12 09:04:48;;;;;;;3.27;2.03;;;13.10;78.60;;;;;;5026836;28;20444;-48
2023/04/12 09:07:13;;;;;;;4.77;2.30;;;13.20;79.00;;;;;;5027650;28;20194;-48
2023/04/12 09:09:41;;;;;;;2.77;2.00;;;13.40;78.90;;;;;;5019175;28;20439;-48
2023/04/12 09:12:07;;;;;;;5.53;2.10;;;13.50;77.90;;;;;;5018004;28;20619;-51
2023/04/12 09:14:32;;;;;;;2.30;1.63;;;13.60;77.10;;;;;;5025989;28;20447;-48
2023/04/12 09:16:58;;;;;;;2.47;1.80;;;13.50;76.90;;;;;;5020463;28;20907;-50
2023/04/12 09:19:34;;;;;;;1.80;1.70;;;13.50;77.30;;;;;;5019948;28;20198;-47
2023/04/12 09:22:00;;;;;;;2.77;2.17;;;13.60;77.40;;;;;;5027221;28;20193;-49
2023/04/12 09:24:27;;;;;;;1.97;1.77;;;13.60;77.10;;;;;;5033993;28;20444;-48
2023/04/12 09:27:03;;;;;;;2.20;2.00;;;13.40;77.50;;;;;;5025095;28;20586;-52
2023/04/12 09:29:30;;;;;;;3.07;2.53;;;13.60;77.40;;;;;;5030057;28;20460;-48
2023/04/12 09:32:04;;;;;;;2.47;2.27;;;13.90;76.60;;;;;;5029156;28;21248;-49
2023/04/12 09:34:30;;;;;;;2.10;1.80;;;14.00;75.90;;;;;;5027264;28;20960;-47
2023/04/12 09:36:56;;;;;;;1.77;1.67;;;14.20;75.40;;;;;;5021781;28;20487;-49
2023/04/12 09:39:34;;;;;;;2.43;2.00;;;14.30;75.80;;;;;;5019668;28;20470;-49
2023/04/12 09:42:04;;;;;;;2.70;2.50;;;14.40;74.50;;;;;;5025146;28;20436;-49
2023/04/12 09:44:30;;;;;;;2.03;1.77;;;14.40;75.50;;;;;;5023157;28;21046;-52
2023/04/12 09:46:57;;;;;;;3.67;2.57;;;14.40;75.90;;;;;;5027191;28;20558;-48
2023/04/12 09:49:55;;;;;;;3.53;2.20;;;14.70;74.40;;;;;;5025680;28;20189;-48
2023/04/12 09:52:21;;;;;;;2.97;2.47;;;14.80;71.70;;;;;;5014633;28;20460;-48
2023/04/12 09:54:47;;;;;;;3.90;1.97;;;14.90;69.60;;;;;;5022753;28;20482;-48
2023/04/12 09:57:18;;;;;;;1.43;1.33;;;14.90;68.60;;;;;;5019095;28;20228;-48
2023/04/12 09:59:45;;;;;;;3.93;1.90;;;14.90;67.90;;;;;;5021814;28;20440;-48
2023/04/12 10:02:16;;;;;;;4.30;1.80;;;15.10;67.20;;;;;;5018050;28;20991;-48
2023/04/12 10:04:42;;;;;;;2.90;2.10;;;15.30;66.70;;;;;;5019124;28;20455;-50
2023/04/12 10:07:07;;;;;;;2.27;1.70;;;15.30;66.40;;;;;;5013787;28;20445;-52
2023/04/12 10:09:36;;;;;;;1.70;1.60;;;15.40;67.70;;;;;;5014261;28;20668;-53
2023/04/12 10:12:02;;;;;;;1.50;1.40;;;15.40;67.40;;;;;;5029645;28;20198;-52
2023/04/12 10:14:28;;;;;;;2.10;1.80;;;15.40;67.50;;;;;;5027644;28;20428;-53
2023/04/12 10:17:00;;;;;;;1.83;1.70;;;15.30;65.90;;;;;;5023120;28;20218;-52
2023/04/12 10:19:27;;;;;;;3.60;2.00;;;15.40;67.20;;;;;;5031184;28;20928;-54
2023/04/12 10:21:54;;;;;;;2.53;1.77;;;15.40;66.10;;;;;;5026808;28;20506;-51
2023/04/12 10:24:24;;;;;;;1.80;1.70;;;15.40;66.20;;;;;;5025377;28;20914;-53
2023/04/12 10:27:02;;;;;;;2.63;2.00;;;15.60;66.70;;;;;;5017763;28;20515;-53
2023/04/12 10:29:30;;;;;;;2.67;1.70;;;15.60;66.60;;;;;;5020898;28;20499;-53
2023/04/12 10:32:16;;;;;;;2.27;1.93;;;15.50;67.10;;;;;;5026593;28;20451;-53
2023/04/12 10:34:42;;;;;;;4.03;2.20;;;15.30;65.70;;;;;;5014178;28;20448;-51
2023/04/12 10:37:08;;;;;;;3.03;2.73;;;15.40;67.20;;;;;;5026262;28;20547;-51
2023/04/12 10:39:37;;;;;;;3.67;1.83;;;15.50;67.40;;;;;;5026156;28;20200;-52
2023/04/12 10:42:17;;;;;;;5.00;2.20;;;15.60;67.40;;;;;;5015671;28;20552;-52
2023/04/12 10:44:42;;;;;;;2.90;1.63;;;15.60;66.70;;;;;;5012393;28;20494;-52
2023/04/12 10:47:11;;;;;;;1.77;1.50;;;15.50;65.70;;;;;;5024225;28;20866;-52
2023/04/12 10:49:38;;;;;;;3.40;1.80;;;15.50;66.00;;;;;;5020479;28;20264;-50
2023/04/12 10:52:13;;;;;;;5.27;1.97;;;15.50;66.00;;;;;;5018398;28;20447;-52
2023/04/12 10:54:39;;;;;;;2.60;1.77;;;15.80;66.70;;;;;;5019481;28;20497;-52
2023/04/12 10:57:06;;;;;;;1.30;1.20;;;15.80;65.20;;;;;;5029580;28;20479;-49
2023/04/12 10:59:51;;;;;;;1.93;1.80;;;15.80;65.60;;;;;;5034436;28;20838;-54
2023/04/12 11:02:17;;;;;;;5.00;2.23;;;16.00;63.90;;;;;;5032627;28;20448;-53
2023/04/12 11:05:08;;;;;;;2.83;1.60;;;15.80;64.20;;;;;;5025490;28;20473;-53
2023/04/12 11:07:42;;;;;;;3.37;1.70;;;15.90;65.10;;;;;;5024393;28;20224;-53
2023/04/12 11:10:15;;;;;;;3.33;1.70;;;15.90;64.80;;;;;;5031832;28;20428;-52
2023/04/12 11:12:47;;;;;;;4.10;1.50;;;15.80;63.20;;;;;;5030080;28;20454;-54
2023/04/12 11:15:13;;;;;;;1.60;1.43;;;15.60;64.20;;;;;;5030285;28;20445;-53
2023/04/12 11:17:38;;;;;;;1.93;1.40;;;15.90;65.40;;;;;;5021636;28;20579;-53
2023/04/12 11:20:09;;;;;;;3.00;1.70;;;16.00;64.60;;;;;;5031343;28;20197;-50
2023/04/12 11:22:35;;;;;;;2.80;1.97;;;16.30;63.80;;;;;;5027239;28;20292;-50
2023/04/12 11:25:02;;;;;;;2.00;1.67;;;16.40;62.70;;;;;;5027221;28;21256;-51
2023/04/12 11:27:28;;;;;;;3.80;1.90;;;16.30;62.40;;;;;;5031998;28;20963;-49
2023/04/12 11:29:56;;;;;;;4.27;1.67;;;16.40;61.90;;;;;;5032013;28;20459;-53
2023/04/12 11:32:25;;;;;;;2.50;1.40;;;16.10;62.10;;;;;;5026779;28;20449;-53
2023/04/12 11:34:54;;;;;;;2.80;1.50;;;16.10;61.90;;;;;;5033662;28;20914;-52
2023/04/12 11:37:21;;;;;;;2.53;1.70;;;16.30;62.00;;;;;;5019075;28;20980;-50
2023/04/12 11:39:50;;;;;;;5.93;1.53;;;16.20;61.70;;;;;;5024283;28;20955;-52
2023/04/12 11:42:17;;;;;;;2.53;1.33;;;16.40;62.00;;;;;;5031196;28;20440;-53
2023/04/12 11:44:44;;;;;;;1.73;1.23;;;16.20;60.90;;;;;;5029224;28;20443;-52
2023/04/12 11:47:20;;;;;;;1.83;1.00;;;16.10;60.90;;;;;;5032577;28;20443;-51
2023/04/12 11:49:55;;;;;;;1.50;1.20;;;15.90;60.20;;;;;;5022726;28;20444;-49
2023/04/12 11:52:30;;;;;;;1.70;1.60;;;15.80;60.00;;;;;;5033922;28;20528;-50
2023/04/12 11:54:58;;;;;;;1.43;1.33;;;15.60;60.20;;;;;;5023167;28;20887;-49
2023/04/12 11:57:24;;;;;;;3.83;1.30;;;15.90;60.60;;;;;;5028026;28;20530;-52
2023/04/12 11:59:49;;;;;;;1.53;1.23;;;15.90;59.40;;;;;;5033640;28;20806;-52
2023/04/12 12:02:19;;;;;;;1.10;1.10;;;15.90;59.90;;;;;;5027432;28;20447;-52
2023/04/12 12:04:47;;;;;;;2.53;1.07;;;16.00;59.40;;;;;;5028090;28;20778;-52
2023/04/12 12:07:14;;;;;;;2.27;1.57;;;15.90;59.00;;;;;;5020705;28;20534;-52
2023/04/12 12:09:41;;;;;;;1.80;1.30;;;16.10;60.00;;;;;;5034693;28;20800;-53
2023/04/12 12:12:09;;;;;;;1.37;1.10;;;16.30;60.00;;;;;;5047927;28;20439;-53
2023/04/12 12:14:35;;;;;;;4.53;1.30;;;16.70;59.70;;;;;;5030409;28;20439;-52
2023/04/12 12:17:01;;;;;;;1.60;1.00;;;16.90;59.10;;;;;;5030769;28;20468;-52
2023/04/12 12:19:36;;;;;;;2.73;1.10;;;17.00;57.80;;;;;;5034105;28;20201;-53
2023/04/12 12:22:16;;;;;;;1.30;1.20;;;16.90;57.50;;;;;;5031063;28;20435;-52
2023/04/12 12:24:46;;;;;;;2.13;1.33;;;16.80;58.30;;;;;;5031905;28;21043;-52
2023/04/12 12:27:16;;;;;;;3.73;1.17;;;16.60;57.60;;;;;;5033646;28;20449;-52
2023/04/12 12:29:41;;;;;;;1.60;1.50;;;16.80;57.60;;;;;;5033957;28;20424;-49
2023/04/12 12:32:12;;;;;;;1.87;1.47;;;16.80;57.70;;;;;;5031904;28;20489;-51
2023/04/12 12:34:39;;;;;;;1.40;1.30;;;16.80;57.50;;;;;;5031824;28;20201;-53
2023/04/12 12:37:11;;;;;;;1.50;1.17;;;16.80;57.10;;;;;;5028723;28;20483;-50
2023/04/12 12:39:36;;;;;;;1.90;1.20;;;16.80;57.50;;;;;;5029740;28;20448;-52
2023/04/12 12:42:05;;;;;;;1.83;1.13;;;16.90;57.50;;;;;;5032220;28;20438;-51
2023/04/12 12:44:30;;;;;;;2.90;1.27;;;16.90;56.70;;;;;;5034007;28;20198;-54
2023/04/12 12:46:59;;;;;;;1.83;1.40;;;17.00;57.40;;;;;;5032023;28;20499;-51
2023/04/12 12:49:25;;;;;;;1.37;1.20;;;17.00;56.60;;;;;;5033991;28;20201;-52
2023/04/12 12:51:50;;;;;;;2.13;1.10;;;17.00;56.70;;;;;;5032610;28;20875;-49